Waverly, Virginia
Current Conditions -  °F | °C
As of 7:58 AM on Wednesday 26 Nov 2014 (Local Time) from KAKQ Reporting Station
Heavy Rain Heavy Rain  
Wind Chill: 41°   Ceiling: 800
Heat Index: 45°   Visibility: 1.7mi
Dew Point: 42°   Wind: 8mph
Humidity: 90%   Direction: 10°N
Pressure: 29.97"   Gusts: NA
Location:  37.03°N, 77.1°W
Report Text: KAKQ 261258Z AUTO 01007KT 350V050 1 3/4SM +RA BR BKN008 BKN015 OVC023 07/06 A2997 RMK AO2 P0000 T00720056 TSNO
Loading
Personal Weather Stations






























Interactive Weather Map New forecast layout! Learn more

10-Day Weather Forecast

Advertisements
Track Severe Weather on mobile